createdAt,value
2023-02-07T00:00:48.001Z,9.70
2023-02-07T00:01:47.920Z,9.80
2023-02-07T00:02:48.114Z,10.00
2023-02-07T00:03:48.052Z,9.30
2023-02-07T00:04:48.024Z,9.60
2023-02-07T00:05:47.933Z,9.70
2023-02-07T00:06:48.078Z,9.60
2023-02-07T00:07:48.090Z,9.50
2023-02-07T00:08:48.121Z,8.70
2023-02-07T00:09:47.997Z,9.60
2023-02-07T00:10:48.018Z,8.50
2023-02-07T00:11:48.149Z,8.60
2023-02-07T00:12:48.157Z,9.90
2023-02-07T00:13:48.168Z,11.20
2023-02-07T00:14:48.064Z,10.10
2023-02-07T00:15:48.058Z,10.20
2023-02-07T00:16:48.172Z,8.20
2023-02-07T00:17:48.089Z,9.10
2023-02-07T00:18:48.234Z,8.70
2023-02-07T00:19:48.131Z,8.80
2023-02-07T00:20:48.258Z,9.00
2023-02-07T00:21:48.136Z,9.20
2023-02-07T00:22:48.283Z,9.20
2023-02-07T00:23:48.295Z,9.40
2023-02-07T00:24:48.314Z,10.50
2023-02-07T00:25:48.194Z,9.10
2023-02-07T00:26:48.334Z,8.50
2023-02-07T00:27:48.405Z,8.50
2023-02-07T00:28:48.429Z,11.90
2023-02-07T00:29:48.261Z,15.00
2023-02-07T00:30:48.347Z,12.90
2023-02-07T00:31:48.399Z,10.10
2023-02-07T00:32:48.281Z,8.60
2023-02-07T00:33:48.426Z,9.60
2023-02-07T00:34:48.436Z,8.90
2023-02-07T00:35:48.336Z,8.70
2023-02-07T00:36:48.339Z,8.60
2023-02-07T00:37:48.342Z,9.30
2023-02-07T00:38:48.493Z,9.10
2023-02-07T00:39:48.500Z,8.70
2023-02-07T00:40:48.514Z,8.30
2023-02-07T00:41:48.526Z,8.10
2023-02-07T00:42:48.412Z,9.00
2023-02-07T00:43:48.455Z,9.50
2023-02-07T00:44:48.566Z,9.70
2023-02-07T00:45:48.574Z,9.00
2023-02-07T00:46:48.591Z,9.10
2023-02-07T00:47:48.482Z,8.80
2023-02-07T00:48:48.618Z,9.00
2023-02-07T00:49:48.511Z,8.00
2023-02-07T00:50:48.644Z,9.20
2023-02-07T00:51:48.655Z,8.70
2023-02-07T00:52:48.545Z,8.70
2023-02-07T00:53:48.551Z,9.20
2023-02-07T00:54:48.695Z,10.40
2023-02-07T00:55:48.705Z,11.60
2023-02-07T00:56:48.719Z,12.20
2023-02-07T00:57:48.616Z,13.30
2023-02-07T00:58:50.875Z,9.70
2023-02-07T00:59:48.760Z,10.20
2023-02-07T01:00:48.772Z,10.10
2023-02-07T01:01:48.783Z,10.50
2023-02-07T01:02:48.667Z,10.70
2023-02-07T01:03:48.677Z,10.30
2023-02-07T01:04:48.866Z,10.50
2023-02-07T01:05:48.717Z,10.80
2023-02-07T01:06:48.849Z,10.70
2023-02-07T01:07:48.732Z,10.40
2023-02-07T01:08:48.889Z,11.10
2023-02-07T01:09:48.752Z,11.60
2023-02-07T01:10:48.901Z,14.80
2023-02-07T01:11:48.795Z,13.30
2023-02-07T01:12:48.802Z,11.10
2023-02-07T01:13:48.813Z,10.80
2023-02-07T01:14:48.953Z,10.50
2023-02-07T01:15:48.962Z,10.90
2023-02-07T01:16:48.979Z,11.40
2023-02-07T01:17:48.859Z,10.80
2023-02-07T01:18:49.016Z,11.00
2023-02-07T01:19:48.884Z,13.80
2023-02-07T01:20:49.031Z,17.60
2023-02-07T01:21:48.916Z,14.30
2023-02-07T01:22:49.065Z,12.90
2023-02-07T01:23:49.066Z,12.10
2023-02-07T01:24:49.082Z,11.40
2023-02-07T01:25:48.982Z,13.00
2023-02-07T01:26:49.105Z,12.10
2023-02-07T01:27:49.132Z,12.60
2023-02-07T01:28:49.130Z,12.90
2023-02-07T01:29:49.024Z,13.30
2023-02-07T01:30:49.259Z,14.70
2023-02-07T01:31:49.097Z,15.80
2023-02-07T01:32:49.180Z,16.60
2023-02-07T01:33:49.073Z,15.90
2023-02-07T01:34:49.207Z,16.30
2023-02-07T01:35:49.086Z,18.00
2023-02-07T01:36:49.231Z,17.30
2023-02-07T01:37:49.264Z,19.30
2023-02-07T01:38:49.124Z,18.70
2023-02-07T01:39:49.144Z,18.30
2023-02-07T01:40:49.281Z,17.80
2023-02-07T01:41:49.181Z,18.60
2023-02-07T01:42:49.309Z,17.90
2023-02-07T01:43:49.211Z,17.90
2023-02-07T01:44:49.195Z,17.90
2023-02-07T01:45:49.211Z,16.90
2023-02-07T01:46:49.356Z,17.60
2023-02-07T01:47:49.257Z,17.50
2023-02-07T01:48:49.259Z,18.00
2023-02-07T01:49:49.261Z,19.50
2023-02-07T01:50:49.415Z,19.80
2023-02-07T01:51:49.278Z,19.00
2023-02-07T01:52:49.425Z,19.10
2023-02-07T01:53:49.326Z,18.50
2023-02-07T01:54:49.452Z,18.70
2023-02-07T01:55:49.462Z,19.30
2023-02-07T01:56:49.477Z,20.10
2023-02-07T01:57:49.354Z,19.10
2023-02-07T01:58:49.393Z,17.80
2023-02-07T01:59:49.393Z,17.40
2023-02-07T02:00:49.409Z,18.10
2023-02-07T02:01:49.471Z,18.90
2023-02-07T02:02:49.607Z,19.90
2023-02-07T02:03:49.450Z,20.50
2023-02-07T02:04:49.458Z,21.10
2023-02-07T02:05:49.456Z,21.50
2023-02-07T02:06:49.608Z,21.50
2023-02-07T02:07:49.494Z,21.50
2023-02-07T02:08:49.489Z,21.80
2023-02-07T02:09:49.635Z,21.20
2023-02-07T02:10:49.651Z,39.20
2023-02-07T02:11:49.662Z,45.70
2023-02-07T02:12:49.557Z,25.40
2023-02-07T02:13:49.687Z,22.30
2023-02-07T02:14:49.603Z,22.60
2023-02-07T02:15:49.737Z,23.50
2023-02-07T02:16:49.722Z,22.20
2023-02-07T02:17:49.609Z,24.10
2023-02-07T02:18:49.644Z,23.20
2023-02-07T02:19:49.758Z,25.40
2023-02-07T02:20:49.641Z,24.60
2023-02-07T02:21:49.663Z,24.10
2023-02-07T02:22:49.677Z,24.90
2023-02-07T02:23:49.816Z,25.60
2023-02-07T02:24:49.704Z,24.00
2023-02-07T02:25:49.835Z,25.30
2023-02-07T02:26:49.848Z,26.40
2023-02-07T02:27:49.755Z,29.30
2023-02-07T02:28:49.873Z,28.50
2023-02-07T02:29:49.888Z,29.20
2023-02-07T02:30:49.955Z,28.60
2023-02-07T02:31:49.907Z,28.80
2023-02-07T02:32:49.788Z,29.60
2023-02-07T02:33:49.930Z,30.10
2023-02-07T02:34:49.830Z,29.70
2023-02-07T02:35:49.957Z,31.10
2023-02-07T02:36:49.969Z,31.50
2023-02-07T02:37:49.844Z,33.20
2023-02-07T02:38:50.000Z,31.20
2023-02-07T02:39:50.031Z,32.90
2023-02-07T02:40:49.914Z,31.70
2023-02-07T02:41:50.041Z,33.00
2023-02-07T02:42:50.041Z,32.20
2023-02-07T02:43:50.057Z,33.40
2023-02-07T02:44:49.940Z,32.60
2023-02-07T02:45:50.081Z,34.00
2023-02-07T02:46:50.090Z,33.50
2023-02-07T02:47:50.108Z,33.60
2023-02-07T02:48:50.116Z,34.90
2023-02-07T02:49:50.129Z,33.80
2023-02-07T02:50:50.032Z,34.70
2023-02-07T02:51:50.153Z,34.40
2023-02-07T02:52:51.340Z,34.90
2023-02-07T02:53:50.180Z,34.40
2023-02-07T02:54:50.157Z,33.10
2023-02-07T02:55:50.077Z,32.60
2023-02-07T02:56:50.085Z,34.10
2023-02-07T02:57:50.226Z,33.70
2023-02-07T02:58:50.240Z,34.50
2023-02-07T02:59:50.253Z,34.20
2023-02-07T03:00:50.156Z,33.20
2023-02-07T03:01:50.307Z,35.90
2023-02-07T03:02:50.288Z,34.50
2023-02-07T03:03:50.302Z,34.90
2023-02-07T03:04:50.219Z,33.80
2023-02-07T03:05:50.324Z,32.70
2023-02-07T03:06:50.203Z,33.80
2023-02-07T03:07:50.346Z,34.30
2023-02-07T03:08:50.236Z,33.80
2023-02-07T03:09:50.373Z,30.60
2023-02-07T03:10:50.254Z,31.60
2023-02-07T03:11:50.394Z,32.70
2023-02-07T03:12:50.276Z,32.80
2023-02-07T03:13:50.304Z,32.80
2023-02-07T03:14:50.315Z,30.20
2023-02-07T03:15:50.451Z,29.50
2023-02-07T03:16:50.322Z,29.90
2023-02-07T03:17:50.352Z,29.10
2023-02-07T03:18:50.379Z,29.10
2023-02-07T03:19:50.371Z,28.40
2023-02-07T03:20:50.375Z,29.00
2023-02-07T03:21:50.514Z,28.90
2023-02-07T03:22:50.523Z,28.40
2023-02-07T03:23:50.541Z,26.40
2023-02-07T03:24:50.422Z,27.70
2023-02-07T03:25:50.565Z,28.10
2023-02-07T03:26:50.446Z,28.60
2023-02-07T03:27:50.631Z,28.00
2023-02-07T03:28:50.470Z,27.60
2023-02-07T03:29:50.605Z,26.60
2023-02-07T03:30:50.602Z,25.70
2023-02-07T03:31:50.627Z,25.20
2023-02-07T03:32:50.506Z,24.60
2023-02-07T03:33:50.651Z,24.40
2023-02-07T03:34:50.665Z,25.20
2023-02-07T03:35:50.674Z,25.70
2023-02-07T03:36:50.563Z,26.20
2023-02-07T03:37:50.698Z,25.60
2023-02-07T03:38:50.583Z,24.20
2023-02-07T03:39:50.590Z,25.50
2023-02-07T03:40:50.739Z,26.10
2023-02-07T03:41:50.752Z,25.30
2023-02-07T03:42:50.759Z,25.40
2023-02-07T03:43:50.770Z,26.40
2023-02-07T03:44:50.654Z,26.70
2023-02-07T03:45:50.800Z,27.90
2023-02-07T03:46:50.781Z,26.80
2023-02-07T03:47:50.814Z,28.10
2023-02-07T03:48:50.697Z,27.70
2023-02-07T03:49:50.705Z,27.60
2023-02-07T03:50:50.850Z,29.10
2023-02-07T03:51:50.728Z,29.00
2023-02-07T03:52:50.750Z,28.90
2023-02-07T03:53:50.886Z,26.90
2023-02-07T03:54:50.897Z,29.50
2023-02-07T03:55:50.912Z,31.30
2023-02-07T03:56:50.788Z,30.50
2023-02-07T03:57:50.939Z,30.30
2023-02-07T03:58:50.947Z,31.90
2023-02-07T03:59:50.961Z,31.40
2023-02-07T04:00:50.874Z,32.10
2023-02-07T04:01:50.886Z,32.20
2023-02-07T04:02:50.995Z,32.60
2023-02-07T04:03:51.006Z,49.10
2023-02-07T04:04:50.893Z,48.40
2023-02-07T04:05:50.897Z,43.60
2023-02-07T04:06:50.939Z,40.00
2023-02-07T04:07:51.050Z,32.30
2023-02-07T04:08:51.065Z,32.30
2023-02-07T04:09:51.082Z,32.90
2023-02-07T04:10:50.953Z,31.70
2023-02-07T04:11:51.100Z,32.20
2023-02-07T04:12:50.988Z,32.00
2023-02-07T04:13:51.123Z,31.70
2023-02-07T04:14:51.002Z,31.10
2023-02-07T04:15:51.147Z,30.50
2023-02-07T04:16:51.056Z,30.80
2023-02-07T04:17:51.175Z,31.60
2023-02-07T04:18:51.059Z,32.30
2023-02-07T04:19:51.067Z,31.40
2023-02-07T04:20:51.073Z,30.70
2023-02-07T04:21:51.218Z,30.50
2023-02-07T04:22:51.233Z,30.90
2023-02-07T04:23:51.242Z,31.40
2023-02-07T04:24:51.249Z,31.60
2023-02-07T04:25:51.260Z,33.60
2023-02-07T04:26:51.171Z,34.30
2023-02-07T04:27:51.323Z,33.40
2023-02-07T04:28:51.299Z,42.70
2023-02-07T04:29:51.190Z,73.70
2023-02-07T04:30:51.388Z,42.80
2023-02-07T04:31:51.433Z,50.90
2023-02-07T04:32:51.230Z,67.70
2023-02-07T04:33:51.350Z,49.10
2023-02-07T04:34:51.371Z,42.00
2023-02-07T04:35:51.247Z,31.50
2023-02-07T04:36:51.267Z,30.80
2023-02-07T04:37:51.394Z,30.60
2023-02-07T04:38:51.299Z,29.40
2023-02-07T04:39:51.417Z,30.10
2023-02-07T04:40:51.428Z,28.40
2023-02-07T04:41:51.317Z,28.60
2023-02-07T04:42:51.454Z,29.50
2023-02-07T04:43:51.466Z,28.30
2023-02-07T04:44:51.344Z,26.80
2023-02-07T04:45:51.515Z,27.30
2023-02-07T04:46:51.379Z,28.20
2023-02-07T04:47:51.377Z,26.80
2023-02-07T04:48:51.386Z,27.10
2023-02-07T04:49:51.530Z,27.40
2023-02-07T04:50:51.544Z,27.10
2023-02-07T04:51:51.553Z,26.10
2023-02-07T04:52:51.451Z,28.20
2023-02-07T04:53:51.577Z,27.10
2023-02-07T04:54:51.586Z,26.60
2023-02-07T04:55:51.598Z,27.80
2023-02-07T04:56:51.612Z,30.30
2023-02-07T04:57:51.621Z,28.20
2023-02-07T04:58:51.506Z,28.60
2023-02-07T04:59:51.651Z,27.40
2023-02-07T05:00:51.657Z,26.40
2023-02-07T05:01:51.668Z,27.60
2023-02-07T05:02:51.557Z,28.90
2023-02-07T05:03:51.690Z,29.90
2023-02-07T05:04:51.677Z,31.90
2023-02-07T05:05:51.716Z,30.10
2023-02-07T05:06:51.726Z,29.40
2023-02-07T05:07:51.739Z,29.80
2023-02-07T05:08:51.624Z,30.30
2023-02-07T05:09:51.770Z,28.80
2023-02-07T05:10:51.667Z,29.50
2023-02-07T05:11:51.786Z,29.10
2023-02-07T05:12:51.795Z,28.60
2023-02-07T05:13:51.812Z,27.50
2023-02-07T05:14:51.695Z,29.00
2023-02-07T05:15:51.829Z,29.00
2023-02-07T05:16:51.767Z,28.60
2023-02-07T05:17:51.854Z,28.60
2023-02-07T05:18:51.736Z,28.70
2023-02-07T05:19:51.877Z,29.70
2023-02-07T05:20:52.439Z,27.30
2023-02-07T05:21:51.901Z,28.20
2023-02-07T05:22:51.795Z,29.90
2023-02-07T05:23:51.924Z,29.30
2023-02-07T05:24:51.801Z,29.40
2023-02-07T05:25:51.812Z,31.10
2023-02-07T05:26:51.956Z,30.90
2023-02-07T05:27:51.861Z,30.20
2023-02-07T05:28:51.859Z,29.60
2023-02-07T05:29:51.990Z,30.20
2023-02-07T05:30:51.911Z,31.00
2023-02-07T05:31:52.081Z,31.80
2023-02-07T05:32:51.909Z,31.90
2023-02-07T05:33:52.042Z,30.60
2023-02-07T05:34:52.048Z,31.50
2023-02-07T05:35:52.058Z,31.40
2023-02-07T05:36:52.066Z,29.70
2023-02-07T05:37:51.953Z,29.80
2023-02-07T05:38:52.090Z,30.00
2023-02-07T05:39:52.101Z,31.80
2023-02-07T05:40:51.998Z,30.90
2023-02-07T05:41:52.125Z,31.60
2023-02-07T05:42:52.044Z,31.90
2023-02-07T05:43:52.018Z,31.40
2023-02-07T05:44:52.039Z,32.30
2023-02-07T05:45:52.175Z,34.20
2023-02-07T05:46:52.751Z,34.10
2023-02-07T05:47:52.073Z,33.50
2023-02-07T05:48:52.093Z,32.60
2023-02-07T05:49:52.214Z,31.20
2023-02-07T05:50:52.088Z,32.30
2023-02-07T05:51:52.234Z,33.20
2023-02-07T05:52:52.244Z,33.40
2023-02-07T05:53:52.255Z,33.70
2023-02-07T05:54:52.274Z,33.10
2023-02-07T05:55:52.277Z,34.60
2023-02-07T05:56:52.178Z,33.80
2023-02-07T05:57:52.308Z,35.00
2023-02-07T05:58:52.219Z,34.80
2023-02-07T05:59:52.213Z,33.00
2023-02-07T06:00:52.336Z,34.80
2023-02-07T06:01:52.350Z,34.20
2023-02-07T06:02:52.281Z,34.40
2023-02-07T06:03:52.420Z,35.00
2023-02-07T06:04:52.255Z,35.70
2023-02-07T06:05:52.390Z,35.00
2023-02-07T06:06:52.278Z,34.90
2023-02-07T06:07:52.420Z,36.20
2023-02-07T06:08:52.423Z,35.90
2023-02-07T06:09:52.434Z,36.20
2023-02-07T06:10:52.333Z,35.90
2023-02-07T06:11:52.455Z,39.00
2023-02-07T06:12:52.472Z,39.10
2023-02-07T06:13:52.479Z,40.90
2023-02-07T06:14:52.391Z,39.10
2023-02-07T06:15:52.532Z,37.90
2023-02-07T06:16:52.400Z,38.50
2023-02-07T06:17:52.544Z,39.40
2023-02-07T06:18:52.404Z,38.00
2023-02-07T06:19:53.706Z,40.00
2023-02-07T06:20:52.567Z,38.60
2023-02-07T06:21:52.570Z,40.10
2023-02-07T06:22:52.463Z,41.00
2023-02-07T06:23:52.593Z,41.50
2023-02-07T06:24:52.670Z,42.10
2023-02-07T06:25:52.618Z,39.40
2023-02-07T06:26:52.503Z,41.90
2023-02-07T06:27:52.685Z,43.30
2023-02-07T06:28:52.646Z,41.20
2023-02-07T06:29:52.550Z,40.10
2023-02-07T06:30:52.683Z,40.90
2023-02-07T06:31:52.624Z,41.70
2023-02-07T06:32:52.564Z,43.40
2023-02-07T06:33:52.706Z,44.70
2023-02-07T06:34:52.717Z,47.50
2023-02-07T06:35:52.610Z,48.90
2023-02-07T06:36:52.744Z,47.00
2023-02-07T06:37:55.009Z,46.30
2023-02-07T06:38:52.762Z,44.50
2023-02-07T06:39:52.771Z,45.80
2023-02-07T06:40:52.789Z,46.30
2023-02-07T06:41:52.676Z,45.70
2023-02-07T06:42:52.808Z,48.90
2023-02-07T06:43:52.817Z,47.30
2023-02-07T06:44:52.829Z,47.10
2023-02-07T06:45:52.840Z,49.10
2023-02-07T06:46:52.759Z,47.70
2023-02-07T06:47:52.758Z,46.90
2023-02-07T06:48:52.754Z,48.10
2023-02-07T06:49:52.752Z,46.80
2023-02-07T06:50:52.895Z,47.20
2023-02-07T06:51:52.795Z,48.00
2023-02-07T06:52:52.803Z,47.10
2023-02-07T06:53:52.932Z,50.80
2023-02-07T06:54:52.942Z,88.50
2023-02-07T06:55:52.951Z,107.60
2023-02-07T06:56:52.968Z,79.80
2023-02-07T06:57:52.857Z,60.70
2023-02-07T06:58:52.987Z,46.50
2023-02-07T06:59:52.862Z,46.20
2023-02-07T07:00:53.006Z,47.80
2023-02-07T07:01:52.962Z,47.70
2023-02-07T07:02:53.062Z,45.00
2023-02-07T07:03:52.918Z,46.30
2023-02-07T07:04:53.052Z,48.10
2023-02-07T07:05:53.066Z,46.50
2023-02-07T07:06:53.079Z,45.00
2023-02-07T07:07:52.960Z,45.70
2023-02-07T07:08:52.981Z,46.00
2023-02-07T07:09:52.989Z,44.90
2023-02-07T07:10:53.122Z,44.30
2023-02-07T07:11:53.005Z,46.30
2023-02-07T07:12:53.153Z,44.40
2023-02-07T07:13:53.030Z,45.30
2023-02-07T07:14:53.034Z,47.00
2023-02-07T07:15:53.074Z,45.50
2023-02-07T07:16:54.233Z,47.00
2023-02-07T07:17:53.074Z,47.40
2023-02-07T07:18:53.211Z,47.00
2023-02-07T07:19:53.096Z,45.90
2023-02-07T07:20:53.116Z,44.50
2023-02-07T07:21:53.112Z,46.20
2023-02-07T07:22:53.254Z,46.00
2023-02-07T07:23:53.145Z,46.60
2023-02-07T07:24:53.278Z,47.90
2023-02-07T07:25:53.290Z,47.00
2023-02-07T07:26:53.304Z,46.20
2023-02-07T07:27:53.333Z,49.70
2023-02-07T07:28:53.202Z,46.40
2023-02-07T07:29:53.200Z,48.00
2023-02-07T07:30:53.476Z,46.40
2023-02-07T07:31:53.259Z,45.30
2023-02-07T07:32:53.368Z,44.20
2023-02-07T07:33:53.483Z,46.70
2023-02-07T07:34:53.390Z,46.20
2023-02-07T07:35:53.280Z,45.50
2023-02-07T07:36:53.411Z,46.00
2023-02-07T07:37:53.428Z,46.00
2023-02-07T07:38:53.322Z,43.50
2023-02-07T07:39:53.310Z,42.60
2023-02-07T07:40:53.457Z,43.10
2023-02-07T07:41:53.348Z,41.60
2023-02-07T07:42:53.475Z,43.60
2023-02-07T07:43:53.364Z,42.10
2023-02-07T07:44:53.377Z,43.30
2023-02-07T07:45:53.375Z,44.40
2023-02-07T07:46:53.541Z,41.30
2023-02-07T07:47:53.479Z,40.00
2023-02-07T07:48:53.421Z,42.60
2023-02-07T07:49:53.421Z,42.10
2023-02-07T07:50:53.567Z,39.80
2023-02-07T07:51:53.440Z,39.80
2023-02-07T07:52:53.585Z,38.10
2023-02-07T07:53:53.480Z,36.80
2023-02-07T07:54:53.615Z,36.90
2023-02-07T07:55:53.484Z,37.20
2023-02-07T07:56:53.627Z,38.40
2023-02-07T07:57:53.639Z,39.50
2023-02-07T07:58:53.523Z,37.70
2023-02-07T07:59:53.534Z,38.30
2023-02-07T08:00:53.696Z,38.60
2023-02-07T08:01:53.565Z,37.50
2023-02-07T08:02:53.696Z,39.30
2023-02-07T08:03:53.609Z,39.10
2023-02-07T08:04:53.604Z,37.10
2023-02-07T08:05:53.597Z,37.40
2023-02-07T08:06:53.741Z,37.90
2023-02-07T08:07:53.622Z,39.60
2023-02-07T08:08:53.772Z,38.20
2023-02-07T08:09:53.648Z,38.50
2023-02-07T08:10:53.788Z,37.40
2023-02-07T08:11:53.668Z,37.00
2023-02-07T08:12:53.811Z,36.10
2023-02-07T08:13:53.691Z,38.40
2023-02-07T08:14:53.700Z,37.50
2023-02-07T08:15:53.841Z,35.80
2023-02-07T08:16:53.725Z,37.20
2023-02-07T08:17:53.738Z,35.50
2023-02-07T08:18:53.879Z,36.80
2023-02-07T08:19:53.762Z,36.90
2023-02-07T08:20:53.906Z,36.60
2023-02-07T08:21:53.782Z,36.70
2023-02-07T08:22:53.930Z,37.20
2023-02-07T08:23:53.809Z,38.40
2023-02-07T08:24:53.957Z,37.70
2023-02-07T08:25:53.829Z,37.70
2023-02-07T08:26:53.844Z,37.90
2023-02-07T08:27:54.019Z,39.10
2023-02-07T08:28:53.997Z,39.00
2023-02-07T08:29:53.880Z,37.60
2023-02-07T08:30:54.149Z,36.60
2023-02-07T08:31:53.978Z,39.10
2023-02-07T08:32:54.040Z,37.50
2023-02-07T08:33:53.933Z,39.20
2023-02-07T08:34:53.946Z,37.50
2023-02-07T08:35:53.996Z,38.50
2023-02-07T08:36:54.086Z,38.40
2023-02-07T08:37:53.995Z,38.20
2023-02-07T08:38:54.017Z,38.80
2023-02-07T08:39:54.014Z,38.50
2023-02-07T08:40:54.134Z,39.40
2023-02-07T08:41:54.014Z,38.20
2023-02-07T08:42:54.164Z,38.30
2023-02-07T08:43:54.166Z,37.90
2023-02-07T08:44:54.057Z,38.70
2023-02-07T08:45:54.363Z,34.80
2023-02-07T08:46:54.201Z,37.00
2023-02-07T08:47:54.216Z,37.10
2023-02-07T08:48:54.226Z,38.80
2023-02-07T08:49:54.239Z,38.80
2023-02-07T08:50:54.123Z,37.80
2023-02-07T08:51:54.130Z,39.30
2023-02-07T08:52:54.272Z,38.50
2023-02-07T08:53:54.170Z,39.00
2023-02-07T08:54:54.296Z,39.30
2023-02-07T08:55:54.171Z,120.70
2023-02-07T08:56:54.201Z,68.60
2023-02-07T08:57:54.196Z,67.40
2023-02-07T08:58:54.340Z,56.20
2023-02-07T08:59:54.335Z,48.80
2023-02-07T09:00:54.401Z,43.70
2023-02-07T09:01:54.406Z,42.80
2023-02-07T09:02:54.389Z,42.00
2023-02-07T09:03:54.268Z,40.80
2023-02-07T09:04:54.411Z,40.40
2023-02-07T09:05:54.321Z,41.70
2023-02-07T09:06:54.311Z,39.30
2023-02-07T09:07:54.450Z,39.30
2023-02-07T09:08:54.461Z,39.80
2023-02-07T09:09:54.345Z,44.50
2023-02-07T09:10:54.510Z,45.30
2023-02-07T09:11:54.370Z,42.90
2023-02-07T09:12:54.368Z,40.90
2023-02-07T09:13:54.383Z,39.30
2023-02-07T09:14:54.528Z,39.70
2023-02-07T09:15:54.422Z,37.40
2023-02-07T09:16:54.600Z,35.20
2023-02-07T09:17:54.561Z,35.90
2023-02-07T09:18:54.575Z,33.10
2023-02-07T09:19:54.461Z,33.00
2023-02-07T09:20:54.600Z,33.90
2023-02-07T09:21:54.483Z,35.20
2023-02-07T09:22:54.625Z,33.90
2023-02-07T09:23:54.511Z,33.40
2023-02-07T09:24:54.649Z,38.20
2023-02-07T09:25:54.554Z,34.90
2023-02-07T09:26:54.579Z,41.10
2023-02-07T09:27:54.575Z,43.50
2023-02-07T09:28:54.703Z,46.70
2023-02-07T09:29:54.581Z,46.20
2023-02-07T09:30:54.884Z,36.90
2023-02-07T09:31:54.706Z,39.70
2023-02-07T09:32:54.633Z,36.90
2023-02-07T09:33:54.769Z,32.20
2023-02-07T09:34:54.782Z,32.00
2023-02-07T09:35:54.696Z,31.90
2023-02-07T09:36:54.814Z,30.50
2023-02-07T09:37:54.688Z,31.30
2023-02-07T09:38:54.839Z,29.50
2023-02-07T09:39:54.853Z,29.80
2023-02-07T09:40:54.770Z,29.00
2023-02-07T09:41:54.757Z,27.00
2023-02-07T09:42:54.924Z,29.50
2023-02-07T09:43:54.966Z,28.10
2023-02-07T09:44:55.027Z,26.40
2023-02-07T09:45:54.855Z,27.80
2023-02-07T09:46:54.823Z,28.60
2023-02-07T09:47:54.830Z,27.90
2023-02-07T09:48:54.981Z,28.20
2023-02-07T09:49:54.884Z,27.90
2023-02-07T09:50:54.905Z,27.90
2023-02-07T09:51:54.895Z,26.20
2023-02-07T09:52:54.914Z,25.80
2023-02-07T09:53:54.927Z,25.90
2023-02-07T09:54:55.074Z,25.80
2023-02-07T09:55:54.973Z,26.40
2023-02-07T09:56:55.108Z,28.70
2023-02-07T09:57:55.118Z,27.90
2023-02-07T09:58:55.132Z,28.40
2023-02-07T09:59:55.019Z,27.50
2023-02-07T10:00:55.161Z,27.80
2023-02-07T10:01:55.085Z,25.70
2023-02-07T10:02:55.065Z,25.90
2023-02-07T10:03:55.099Z,23.90
2023-02-07T10:04:55.223Z,22.70
2023-02-07T10:05:55.120Z,25.10
2023-02-07T10:06:55.150Z,23.90
2023-02-07T10:07:55.163Z,22.90
2023-02-07T10:08:55.286Z,22.20
2023-02-07T10:09:55.170Z,22.70
2023-02-07T10:10:55.314Z,22.30
2023-02-07T10:11:55.282Z,23.40
2023-02-07T10:12:55.348Z,23.10
2023-02-07T10:13:55.364Z,24.10
2023-02-07T10:14:55.379Z,24.60
2023-02-07T10:15:55.511Z,25.80
2023-02-07T10:16:55.412Z,24.70
2023-02-07T10:17:55.293Z,23.70
2023-02-07T10:18:55.328Z,24.20
2023-02-07T10:19:55.327Z,24.70
2023-02-07T10:20:55.472Z,24.90
2023-02-07T10:21:55.361Z,24.20
2023-02-07T10:22:55.502Z,25.30
2023-02-07T10:23:55.410Z,25.00
2023-02-07T10:24:55.537Z,25.70
2023-02-07T10:25:55.428Z,25.50
2023-02-07T10:26:55.574Z,26.90
2023-02-07T10:27:55.489Z,27.90
2023-02-07T10:28:55.480Z,25.80
2023-02-07T10:29:55.615Z,26.40
2023-02-07T10:30:55.760Z,26.60
2023-02-07T10:31:55.604Z,29.00
2023-02-07T10:32:55.664Z,26.40
2023-02-07T10:33:55.568Z,24.10
2023-02-07T10:34:55.695Z,24.70
2023-02-07T10:35:55.581Z,23.50
2023-02-07T10:36:55.765Z,23.90
2023-02-07T10:37:55.628Z,24.00
2023-02-07T10:39:07.778Z,24.20
2023-02-07T10:39:55.782Z,22.40
2023-02-07T10:40:55.662Z,22.40
2023-02-07T10:41:55.692Z,24.60
2023-02-07T10:42:55.818Z,24.80
2023-02-07T10:43:55.866Z,26.60
2023-02-07T10:44:55.727Z,24.70
2023-02-07T10:46:00.798Z,23.50
2023-02-07T10:46:55.847Z,24.30
2023-02-07T10:47:55.813Z,22.30
2023-02-07T10:48:55.804Z,22.70
2023-02-07T10:49:55.951Z,23.70
2023-02-07T10:50:55.832Z,23.00
2023-02-07T10:51:55.982Z,22.20
2023-02-07T10:52:55.897Z,21.10
2023-02-07T10:53:57.701Z,21.80
2023-02-07T10:54:55.906Z,20.30
2023-02-07T10:55:56.057Z,22.00
2023-02-07T10:56:57.866Z,23.40
2023-02-07T10:58:02.614Z,22.00
2023-02-07T10:58:55.978Z,21.80
2023-02-07T10:59:56.135Z,21.00
2023-02-07T11:00:56.013Z,20.30
2023-02-07T11:01:56.090Z,20.40
2023-02-07T11:02:56.138Z,21.50
2023-02-07T11:03:56.204Z,22.90
2023-02-07T11:04:56.099Z,23.90
2023-02-07T11:05:56.244Z,24.30
2023-02-07T11:06:56.156Z,24.70
2023-02-07T11:07:56.153Z,24.50
2023-02-07T11:08:56.167Z,23.70
2023-02-07T11:09:56.321Z,22.10
2023-02-07T11:10:56.210Z,23.40
2023-02-07T11:11:56.363Z,21.60
2023-02-07T11:12:56.237Z,25.00
2023-02-07T11:13:56.393Z,27.90
2023-02-07T11:14:56.290Z,28.10
2023-02-07T11:15:56.482Z,29.70
2023-02-07T11:16:56.458Z,28.60
2023-02-07T11:17:56.448Z,30.00
2023-02-07T11:18:56.485Z,31.30
2023-02-07T11:19:56.394Z,30.60
2023-02-07T11:20:56.450Z,32.80
2023-02-07T11:21:56.545Z,33.10
2023-02-07T11:22:56.421Z,34.20
2023-02-07T11:23:56.901Z,32.50
2023-02-07T11:24:56.478Z,33.40
2023-02-07T11:25:56.599Z,32.20
2023-02-07T11:26:56.615Z,33.10
2023-02-07T11:27:56.664Z,36.10
2023-02-07T11:28:56.520Z,33.20
2023-02-07T11:29:56.534Z,31.30
2023-02-07T11:30:56.907Z,31.40
2023-02-07T11:31:56.698Z,29.50
2023-02-07T11:32:56.713Z,28.60
2023-02-07T11:33:56.733Z,27.70
2023-02-07T11:34:56.664Z,27.40
2023-02-07T11:35:56.639Z,26.10
2023-02-07T11:36:56.645Z,25.60
2023-02-07T11:37:56.793Z,26.20
2023-02-07T11:38:56.811Z,26.30
2023-02-07T11:39:56.826Z,25.70
2023-02-07T11:40:56.720Z,25.60
2023-02-07T11:41:56.873Z,25.00
2023-02-07T11:42:56.739Z,26.80
2023-02-07T11:43:56.759Z,25.30
2023-02-07T11:44:56.796Z,25.90
2023-02-07T11:45:59.261Z,25.10
2023-02-07T11:46:56.799Z,27.10
2023-02-07T11:47:56.945Z,25.80
2023-02-07T11:48:56.840Z,24.30
2023-02-07T11:49:56.979Z,25.00
2023-02-07T11:50:56.999Z,25.90
2023-02-07T11:51:57.017Z,25.60
2023-02-07T11:52:57.056Z,26.70
2023-02-07T11:53:56.912Z,26.70
2023-02-07T11:54:56.944Z,26.10
2023-02-07T11:55:57.070Z,26.20
2023-02-07T11:56:57.087Z,25.70
2023-02-07T11:57:56.970Z,23.90
2023-02-07T11:58:56.995Z,24.20
2023-02-07T11:59:57.132Z,22.30
2023-02-07T12:00:57.030Z,23.50
2023-02-07T12:01:57.204Z,22.50
2023-02-07T12:02:57.064Z,22.10
2023-02-07T12:03:57.074Z,22.10
2023-02-07T12:04:57.151Z,20.20
2023-02-07T12:05:57.226Z,19.60
2023-02-07T12:06:57.139Z,18.80
2023-02-07T12:07:57.256Z,18.00
2023-02-07T12:08:57.272Z,18.50
2023-02-07T12:10:57.183Z,17.30
2023-02-07T12:11:57.321Z,17.50
2023-02-07T12:12:57.337Z,18.90
2023-02-07T12:13:57.232Z,19.20
2023-02-07T12:14:57.257Z,19.50
2023-02-07T12:15:57.353Z,20.00
2023-02-07T12:16:57.283Z,21.20
2023-02-07T12:17:57.420Z,19.80
2023-02-07T12:18:57.303Z,19.80
2023-02-07T12:19:57.330Z,20.40
2023-02-07T12:20:57.351Z,20.50
2023-02-07T12:21:57.589Z,21.70
2023-02-07T12:23:11.648Z,20.50
2023-02-07T12:23:57.517Z,20.00
2023-02-07T12:24:57.405Z,19.40
2023-02-07T12:25:57.558Z,19.90
2023-02-07T12:26:57.455Z,20.70
2023-02-07T12:27:57.611Z,19.50
2023-02-07T12:29:12.082Z,20.50
2023-02-07T12:29:57.494Z,19.80
2023-02-07T12:30:57.700Z,20.30
2023-02-07T12:31:57.726Z,20.70
2023-02-07T12:32:57.585Z,20.00
2023-02-07T12:33:57.700Z,20.60
2023-02-07T12:34:57.576Z,20.30
2023-02-07T12:35:58.387Z,20.70
2023-02-07T12:36:57.624Z,20.00
2023-02-07T12:37:57.774Z,20.00
2023-02-07T12:38:57.673Z,21.90
2023-02-07T12:39:57.796Z,21.80
2023-02-07T12:40:57.814Z,20.60
2023-02-07T12:41:57.708Z,21.00
2023-02-07T12:42:57.717Z,19.80
2023-02-07T12:43:57.867Z,19.50
2023-02-07T12:44:57.755Z,19.50
2023-02-07T12:45:57.920Z,19.90
2023-02-07T12:46:57.796Z,20.30
2023-02-07T12:47:57.932Z,19.50
2023-02-07T12:48:57.821Z,18.00
2023-02-07T12:49:57.970Z,18.20
2023-02-07T12:50:57.862Z,17.20
2023-02-07T12:51:58.006Z,18.20
2023-02-07T12:52:57.920Z,17.90
2023-02-07T12:53:57.919Z,17.20
2023-02-07T12:54:57.955Z,16.30
2023-02-07T12:55:57.951Z,15.90